sensor_id;sensor_type;location;lat;lon;timestamp;temperature;humidity
29341;DHT22;16337;59.536;13.468;2024-03-08T00:00:08;-2.70;99.90
29341;DHT22;16337;59.536;13.468;2024-03-08T00:02:37;-2.50;99.90
29341;DHT22;16337;59.536;13.468;2024-03-08T00:05:12;-2.50;99.90
29341;DHT22;16337;59.536;13.468;2024-03-08T00:07:39;-2.20;99.90
29341;DHT22;16337;59.536;13.468;2024-03-08T00:10:08;-2.20;99.90
29341;DHT22;16337;59.536;13.468;2024-03-08T00:12:47;-2.10;99.90
29341;DHT22;16337;59.536;13.468;2024-03-08T00:15:15;-2.20;99.90
29341;DHT22;16337;59.536;13.468;2024-03-08T00:17:41;-2.10;99.90
29341;DHT22;16337;59.536;13.468;2024-03-08T00:20:08;-2.00;99.90
29341;DHT22;16337;59.536;13.468;2024-03-08T00:22:45;-2.00;99.90
29341;DHT22;16337;59.536;13.468;2024-03-08T00:25:11;-2.00;99.90
29341;DHT22;16337;59.536;13.468;2024-03-08T00:27:37;-1.70;99.90
29341;DHT22;16337;59.536;13.468;2024-03-08T00:30:14;-1.60;99.90
29341;DHT22;16337;59.536;13.468;2024-03-08T00:32:40;-1.40;99.90
29341;DHT22;16337;59.536;13.468;2024-03-08T00:35:15;-1.20;99.90
29341;DHT22;16337;59.536;13.468;2024-03-08T00:37:41;-1.00;99.90
29341;DHT22;16337;59.536;13.468;2024-03-08T00:40:21;-1.00;99.90
29341;DHT22;16337;59.536;13.468;2024-03-08T00:42:49;-1.00;99.90
29341;DHT22;16337;59.536;13.468;2024-03-08T00:45:17;-0.80;99.90
29341;DHT22;16337;59.536;13.468;2024-03-08T00:47:42;-0.80;99.90
29341;DHT22;16337;59.536;13.468;2024-03-08T00:50:10;-0.80;99.90
29341;DHT22;16337;59.536;13.468;2024-03-08T00:52:36;-0.80;99.90
29341;DHT22;16337;59.536;13.468;2024-03-08T00:55:02;-0.70;99.90
29341;DHT22;16337;59.536;13.468;2024-03-08T00:57:28;-0.80;99.90
29341;DHT22;16337;59.536;13.468;2024-03-08T00:59:54;-1.00;99.90
29341;DHT22;16337;59.536;13.468;2024-03-08T01:02:19;-1.10;99.90
29341;DHT22;16337;59.536;13.468;2024-03-08T01:04:46;-1.30;99.90
29341;DHT22;16337;59.536;13.468;2024-03-08T01:07:12;-1.20;99.90
29341;DHT22;16337;59.536;13.468;2024-03-08T01:09:38;-1.30;99.90
29341;DHT22;16337;59.536;13.468;2024-03-08T01:12:04;-1.30;99.90
29341;DHT22;16337;59.536;13.468;2024-03-08T01:14:33;-1.30;99.90
29341;DHT22;16337;59.536;13.468;2024-03-08T01:16:58;-1.30;99.90
29341;DHT22;16337;59.536;13.468;2024-03-08T01:19:24;-1.10;99.90
29341;DHT22;16337;59.536;13.468;2024-03-08T01:21:50;-1.10;99.90
29341;DHT22;16337;59.536;13.468;2024-03-08T01:24:16;-1.10;99.90
29341;DHT22;16337;59.536;13.468;2024-03-08T01:26:42;-1.10;99.90
29341;DHT22;16337;59.536;13.468;2024-03-08T01:29:08;-1.10;99.90
29341;DHT22;16337;59.536;13.468;2024-03-08T01:31:33;-1.20;99.90
29341;DHT22;16337;59.536;13.468;2024-03-08T01:33:59;-1.20;99.90
29341;DHT22;16337;59.536;13.468;2024-03-08T01:36:25;-1.20;99.90
29341;DHT22;16337;59.536;13.468;2024-03-08T01:38:52;-1.30;99.90
29341;DHT22;16337;59.536;13.468;2024-03-08T01:41:18;-1.40;99.90
29341;DHT22;16337;59.536;13.468;2024-03-08T01:43:45;-1.50;99.90
29341;DHT22;16337;59.536;13.468;2024-03-08T01:46:19;-1.40;99.90
29341;DHT22;16337;59.536;13.468;2024-03-08T01:48:47;-1.60;99.90
29341;DHT22;16337;59.536;13.468;2024-03-08T01:51:14;-1.50;99.90
29341;DHT22;16337;59.536;13.468;2024-03-08T01:53:40;-1.50;99.90
29341;DHT22;16337;59.536;13.468;2024-03-08T01:56:07;-1.50;99.90
29341;DHT22;16337;59.536;13.468;2024-03-08T01:58:35;-1.60;99.90
29341;DHT22;16337;59.536;13.468;2024-03-08T02:01:01;-1.70;99.90
29341;DHT22;16337;59.536;13.468;2024-03-08T02:03:29;-1.80;99.90
29341;DHT22;16337;59.536;13.468;2024-03-08T02:05:57;-1.90;99.90
29341;DHT22;16337;59.536;13.468;2024-03-08T02:08:24;-1.90;99.90
29341;DHT22;16337;59.536;13.468;2024-03-08T02:10:50;-1.90;99.90
29341;DHT22;16337;59.536;13.468;2024-03-08T02:13:16;-2.00;99.90
29341;DHT22;16337;59.536;13.468;2024-03-08T02:15:56;-1.80;99.90
29341;DHT22;16337;59.536;13.468;2024-03-08T02:18:22;-1.80;99.90
29341;DHT22;16337;59.536;13.468;2024-03-08T02:21:02;-1.80;99.90
29341;DHT22;16337;59.536;13.468;2024-03-08T02:23:28;-1.80;99.90
29341;DHT22;16337;59.536;13.468;2024-03-08T02:25:55;-1.80;99.90
29341;DHT22;16337;59.536;13.468;2024-03-08T02:28:22;-1.80;99.90
29341;DHT22;16337;59.536;13.468;2024-03-08T02:30:49;-1.80;99.90
29341;DHT22;16337;59.536;13.468;2024-03-08T02:33:26;-1.60;99.90
29341;DHT22;16337;59.536;13.468;2024-03-08T02:35:55;-1.60;99.90
29341;DHT22;16337;59.536;13.468;2024-03-08T02:38:22;-1.70;99.90
29341;DHT22;16337;59.536;13.468;2024-03-08T02:40:50;-1.70;99.90
29341;DHT22;16337;59.536;13.468;2024-03-08T02:43:17;-1.70;99.90
29341;DHT22;16337;59.536;13.468;2024-03-08T02:45:43;-1.90;99.90
29341;DHT22;16337;59.536;13.468;2024-03-08T02:48:11;-2.00;99.90
29341;DHT22;16337;59.536;13.468;2024-03-08T02:50:37;-2.00;99.90
29341;DHT22;16337;59.536;13.468;2024-03-08T02:53:05;-2.00;99.90
29341;DHT22;16337;59.536;13.468;2024-03-08T02:55:31;-1.90;99.90
29341;DHT22;16337;59.536;13.468;2024-03-08T02:57:59;-2.00;99.90
29341;DHT22;16337;59.536;13.468;2024-03-08T03:00:24;-2.10;99.90
29341;DHT22;16337;59.536;13.468;2024-03-08T03:02:50;-2.00;99.90
29341;DHT22;16337;59.536;13.468;2024-03-08T03:05:23;-2.10;99.90
29341;DHT22;16337;59.536;13.468;2024-03-08T03:07:55;-2.00;99.90
29341;DHT22;16337;59.536;13.468;2024-03-08T03:10:21;-1.90;99.90
29341;DHT22;16337;59.536;13.468;2024-03-08T03:12:47;-1.80;99.90
29341;DHT22;16337;59.536;13.468;2024-03-08T03:15:17;-1.80;99.90
29341;DHT22;16337;59.536;13.468;2024-03-08T03:17:50;-1.90;99.90
29341;DHT22;16337;59.536;13.468;2024-03-08T03:20:19;-2.00;99.90
29341;DHT22;16337;59.536;13.468;2024-03-08T03:23:04;-2.10;99.90
29341;DHT22;16337;59.536;13.468;2024-03-08T03:25:29;-2.10;99.90
29341;DHT22;16337;59.536;13.468;2024-03-08T03:27:59;-2.00;99.90
29341;DHT22;16337;59.536;13.468;2024-03-08T03:30:26;-2.10;99.90
29341;DHT22;16337;59.536;13.468;2024-03-08T03:32:59;-2.10;99.90
29341;DHT22;16337;59.536;13.468;2024-03-08T03:35:27;-2.20;99.90
29341;DHT22;16337;59.536;13.468;2024-03-08T03:37:52;-2.00;99.90
29341;DHT22;16337;59.536;13.468;2024-03-08T03:40:33;-2.10;99.90
29341;DHT22;16337;59.536;13.468;2024-03-08T03:42:58;-2.10;99.90
29341;DHT22;16337;59.536;13.468;2024-03-08T03:45:24;-2.00;99.90
29341;DHT22;16337;59.536;13.468;2024-03-08T03:47:50;-2.00;99.90
29341;DHT22;16337;59.536;13.468;2024-03-08T03:50:17;-2.00;99.90
29341;DHT22;16337;59.536;13.468;2024-03-08T03:52:45;-1.90;99.90
29341;DHT22;16337;59.536;13.468;2024-03-08T03:55:11;-1.90;99.90
29341;DHT22;16337;59.536;13.468;2024-03-08T03:57:39;-1.90;99.90
29341;DHT22;16337;59.536;13.468;2024-03-08T04:00:05;-1.90;99.90
29341;DHT22;16337;59.536;13.468;2024-03-08T04:02:32;-2.00;99.90
29341;DHT22;16337;59.536;13.468;2024-03-08T04:04:57;-2.10;99.90
29341;DHT22;16337;59.536;13.468;2024-03-08T04:07:24;-2.00;99.90
29341;DHT22;16337;59.536;13.468;2024-03-08T04:09:50;-2.00;99.90
29341;DHT22;16337;59.536;13.468;2024-03-08T04:12:15;-2.10;99.90
29341;DHT22;16337;59.536;13.468;2024-03-08T04:14:42;-2.20;99.90
29341;DHT22;16337;59.536;13.468;2024-03-08T04:17:08;-2.20;99.90
29341;DHT22;16337;59.536;13.468;2024-03-08T04:19:37;-2.30;99.90
29341;DHT22;16337;59.536;13.468;2024-03-08T04:22:03;-2.40;99.90
29341;DHT22;16337;59.536;13.468;2024-03-08T04:24:29;-2.50;99.90
29341;DHT22;16337;59.536;13.468;2024-03-08T04:26:56;-2.50;99.90
29341;DHT22;16337;59.536;13.468;2024-03-08T04:29:23;-2.50;99.90
29341;DHT22;16337;59.536;13.468;2024-03-08T04:31:48;-2.50;99.90
29341;DHT22;16337;59.536;13.468;2024-03-08T04:34:14;-2.60;99.90
29341;DHT22;16337;59.536;13.468;2024-03-08T04:36:40;-2.60;99.90
29341;DHT22;16337;59.536;13.468;2024-03-08T04:39:05;-2.60;99.90
29341;DHT22;16337;59.536;13.468;2024-03-08T04:41:31;-2.60;99.90
29341;DHT22;16337;59.536;13.468;2024-03-08T04:43:59;-2.60;99.90
29341;DHT22;16337;59.536;13.468;2024-03-08T04:46:25;-2.50;99.90
29341;DHT22;16337;59.536;13.468;2024-03-08T04:48:50;-2.40;99.90
29341;DHT22;16337;59.536;13.468;2024-03-08T04:51:16;-2.40;99.90
29341;DHT22;16337;59.536;13.468;2024-03-08T04:53:42;-2.30;99.90
29341;DHT22;16337;59.536;13.468;2024-03-08T04:56:07;-2.30;99.90
29341;DHT22;16337;59.536;13.468;2024-03-08T04:58:35;-2.40;99.90
29341;DHT22;16337;59.536;13.468;2024-03-08T05:01:01;-2.50;99.90
29341;DHT22;16337;59.536;13.468;2024-03-08T05:03:28;-2.60;99.90
29341;DHT22;16337;59.536;13.468;2024-03-08T05:05:55;-2.70;99.90
29341;DHT22;16337;59.536;13.468;2024-03-08T05:08:23;-2.70;99.90
29341;DHT22;16337;59.536;13.468;2024-03-08T05:11:14;-2.60;99.90
29341;DHT22;16337;59.536;13.468;2024-03-08T05:13:41;-2.50;99.90
29341;DHT22;16337;59.536;13.468;2024-03-08T05:16:06;-2.40;99.90
29341;DHT22;16337;59.536;13.468;2024-03-08T05:18:33;-2.40;99.90
29341;DHT22;16337;59.536;13.468;2024-03-08T05:20:59;-2.30;99.90
29341;DHT22;16337;59.536;13.468;2024-03-08T05:23:25;-2.20;99.90
29341;DHT22;16337;59.536;13.468;2024-03-08T05:25:50;-2.30;99.90
29341;DHT22;16337;59.536;13.468;2024-03-08T05:28:16;-2.30;99.90
29341;DHT22;16337;59.536;13.468;2024-03-08T05:30:42;-2.30;99.90
29341;DHT22;16337;59.536;13.468;2024-03-08T05:33:08;-2.10;99.90
29341;DHT22;16337;59.536;13.468;2024-03-08T05:35:36;-2.20;99.90
29341;DHT22;16337;59.536;13.468;2024-03-08T05:38:03;-2.20;99.90
29341;DHT22;16337;59.536;13.468;2024-03-08T05:40:28;-2.30;99.90
29341;DHT22;16337;59.536;13.468;2024-03-08T05:43:00;-2.40;99.90
29341;DHT22;16337;59.536;13.468;2024-03-08T05:45:26;-2.50;99.90
29341;DHT22;16337;59.536;13.468;2024-03-08T05:47:52;-2.60;99.90
29341;DHT22;16337;59.536;13.468;2024-03-08T05:50:18;-2.60;99.90
29341;DHT22;16337;59.536;13.468;2024-03-08T05:52:45;-2.50;99.90
29341;DHT22;16337;59.536;13.468;2024-03-08T05:55:10;-2.50;99.90
29341;DHT22;16337;59.536;13.468;2024-03-08T05:57:36;-2.60;99.90
29341;DHT22;16337;59.536;13.468;2024-03-08T06:00:06;-2.60;99.90
29341;DHT22;16337;59.536;13.468;2024-03-08T06:02:31;-2.70;99.90
29341;DHT22;16337;59.536;13.468;2024-03-08T06:04:58;-2.70;99.90
29341;DHT22;16337;59.536;13.468;2024-03-08T06:07:23;-2.70;99.90
29341;DHT22;16337;59.536;13.468;2024-03-08T06:09:49;-2.70;99.90
29341;DHT22;16337;59.536;13.468;2024-03-08T06:12:15;-2.70;99.90
29341;DHT22;16337;59.536;13.468;2024-03-08T06:14:47;-2.70;99.90
29341;DHT22;16337;59.536;13.468;2024-03-08T06:17:12;-2.70;99.90
29341;DHT22;16337;59.536;13.468;2024-03-08T06:19:38;-2.70;99.90
29341;DHT22;16337;59.536;13.468;2024-03-08T06:22:04;-2.60;99.90
29341;DHT22;16337;59.536;13.468;2024-03-08T06:24:34;-2.60;99.90
29341;DHT22;16337;59.536;13.468;2024-03-08T06:27:02;-2.60;99.90
29341;DHT22;16337;59.536;13.468;2024-03-08T06:29:28;-2.60;99.90
29341;DHT22;16337;59.536;13.468;2024-03-08T06:31:53;-2.50;99.90
29341;DHT22;16337;59.536;13.468;2024-03-08T06:34:19;-2.40;99.90
29341;DHT22;16337;59.536;13.468;2024-03-08T06:36:45;-2.10;99.90
29341;DHT22;16337;59.536;13.468;2024-03-08T06:39:10;-1.90;99.90
29341;DHT22;16337;59.536;13.468;2024-03-08T06:41:36;-1.70;99.90
29341;DHT22;16337;59.536;13.468;2024-03-08T06:44:02;-1.60;99.90
29341;DHT22;16337;59.536;13.468;2024-03-08T06:46:28;-1.40;99.90
29341;DHT22;16337;59.536;13.468;2024-03-08T06:48:54;-1.20;99.90
29341;DHT22;16337;59.536;13.468;2024-03-08T06:51:20;-1.10;99.90
29341;DHT22;16337;59.536;13.468;2024-03-08T06:53:46;-1.00;99.90
29341;DHT22;16337;59.536;13.468;2024-03-08T06:56:11;-0.80;99.90
29341;DHT22;16337;59.536;13.468;2024-03-08T06:58:37;-0.70;99.90
29341;DHT22;16337;59.536;13.468;2024-03-08T07:01:03;-0.60;99.90
29341;DHT22;16337;59.536;13.468;2024-03-08T07:03:33;-0.50;99.90
29341;DHT22;16337;59.536;13.468;2024-03-08T07:05:59;-0.40;99.90
29341;DHT22;16337;59.536;13.468;2024-03-08T07:08:25;-0.30;99.90
29341;DHT22;16337;59.536;13.468;2024-03-08T07:10:53;-0.20;99.90
29341;DHT22;16337;59.536;13.468;2024-03-08T07:13:18;-0.10;99.90
29341;DHT22;16337;59.536;13.468;2024-03-08T07:15:44;0.00;99.90
29341;DHT22;16337;59.536;13.468;2024-03-08T07:18:11;0.10;99.90
29341;DHT22;16337;59.536;13.468;2024-03-08T07:20:41;0.20;99.90
29341;DHT22;16337;59.536;13.468;2024-03-08T07:23:08;0.30;99.90
29341;DHT22;16337;59.536;13.468;2024-03-08T07:25:35;0.40;99.90
29341;DHT22;16337;59.536;13.468;2024-03-08T07:28:01;0.50;99.90
29341;DHT22;16337;59.536;13.468;2024-03-08T07:30:27;0.60;99.90
29341;DHT22;16337;59.536;13.468;2024-03-08T07:33:12;0.70;99.90
29341;DHT22;16337;59.536;13.468;2024-03-08T07:35:39;0.80;99.90
29341;DHT22;16337;59.536;13.468;2024-03-08T07:38:06;0.90;99.90
29341;DHT22;16337;59.536;13.468;2024-03-08T07:40:36;1.00;99.90
29341;DHT22;16337;59.536;13.468;2024-03-08T07:43:04;1.10;99.90
29341;DHT22;16337;59.536;13.468;2024-03-08T07:45:30;1.10;99.90
29341;DHT22;16337;59.536;13.468;2024-03-08T07:47:56;1.30;99.90
29341;DHT22;16337;59.536;13.468;2024-03-08T07:50:22;1.40;99.90
29341;DHT22;16337;59.536;13.468;2024-03-08T07:52:48;1.40;99.90
29341;DHT22;16337;59.536;13.468;2024-03-08T07:55:14;1.60;99.90
29341;DHT22;16337;59.536;13.468;2024-03-08T07:57:40;1.60;99.90
29341;DHT22;16337;59.536;13.468;2024-03-08T08:00:06;1.70;99.90
29341;DHT22;16337;59.536;13.468;2024-03-08T08:02:36;1.80;99.90
29341;DHT22;16337;59.536;13.468;2024-03-08T08:05:02;1.90;99.90
29341;DHT22;16337;59.536;13.468;2024-03-08T08:07:29;1.90;99.90
29341;DHT22;16337;59.536;13.468;2024-03-08T08:09:54;2.10;99.90
29341;DHT22;16337;59.536;13.468;2024-03-08T08:12:20;2.20;99.90
29341;DHT22;16337;59.536;13.468;2024-03-08T08:14:46;2.30;99.90
29341;DHT22;16337;59.536;13.468;2024-03-08T08:17:12;2.40;99.90
29341;DHT22;16337;59.536;13.468;2024-03-08T08:19:38;2.40;99.90
29341;DHT22;16337;59.536;13.468;2024-03-08T08:22:06;2.50;99.90
29341;DHT22;16337;59.536;13.468;2024-03-08T08:24:34;2.60;99.90
29341;DHT22;16337;59.536;13.468;2024-03-08T08:27:02;2.60;99.90
29341;DHT22;16337;59.536;13.468;2024-03-08T08:29:28;2.70;99.90
29341;DHT22;16337;59.536;13.468;2024-03-08T08:31:54;2.80;99.90
29341;DHT22;16337;59.536;13.468;2024-03-08T08:34:19;2.90;99.90
29341;DHT22;16337;59.536;13.468;2024-03-08T08:36:47;2.90;99.90
29341;DHT22;16337;59.536;13.468;2024-03-08T08:39:47;3.00;99.90
29341;DHT22;16337;59.536;13.468;2024-03-08T08:42:37;3.20;99.90
29341;DHT22;16337;59.536;13.468;2024-03-08T08:45:06;3.50;99.90
29341;DHT22;16337;59.536;13.468;2024-03-08T08:47:37;3.60;99.90
29341;DHT22;16337;59.536;13.468;2024-03-08T08:50:04;3.70;99.90
29341;DHT22;16337;59.536;13.468;2024-03-08T08:52:33;3.80;99.90
29341;DHT22;16337;59.536;13.468;2024-03-08T08:55:00;3.90;99.90
29341;DHT22;16337;59.536;13.468;2024-03-08T08:57:35;4.00;99.90
29341;DHT22;16337;59.536;13.468;2024-03-08T09:00:02;4.10;99.90
29341;DHT22;16337;59.536;13.468;2024-03-08T09:02:42;4.10;99.90
29341;DHT22;16337;59.536;13.468;2024-03-08T09:05:33;4.40;99.90
29341;DHT22;16337;59.536;13.468;2024-03-08T09:08:46;4.50;99.90
29341;DHT22;16337;59.536;13.468;2024-03-08T09:11:12;4.70;99.90
29341;DHT22;16337;59.536;13.468;2024-03-08T09:13:43;4.80;99.90
29341;DHT22;16337;59.536;13.468;2024-03-08T09:16:28;4.90;99.90
29341;DHT22;16337;59.536;13.468;2024-03-08T09:18:53;5.20;99.90
29341;DHT22;16337;59.536;13.468;2024-03-08T09:21:19;5.40;99.90
29341;DHT22;16337;59.536;13.468;2024-03-08T09:23:54;5.60;99.90
29341;DHT22;16337;59.536;13.468;2024-03-08T09:26:36;5.60;99.90
29341;DHT22;16337;59.536;13.468;2024-03-08T09:29:03;5.70;99.90
29341;DHT22;16337;59.536;13.468;2024-03-08T09:31:28;5.60;99.90
29341;DHT22;16337;59.536;13.468;2024-03-08T09:33:54;5.50;99.90
29341;DHT22;16337;59.536;13.468;2024-03-08T09:36:20;5.60;99.90
29341;DHT22;16337;59.536;13.468;2024-03-08T09:38:45;5.60;99.90
29341;DHT22;16337;59.536;13.468;2024-03-08T09:41:13;5.70;99.90
29341;DHT22;16337;59.536;13.468;2024-03-08T09:43:39;5.90;99.90
29341;DHT22;16337;59.536;13.468;2024-03-08T09:46:04;6.10;99.90
29341;DHT22;16337;59.536;13.468;2024-03-08T09:48:32;6.30;99.90
29341;DHT22;16337;59.536;13.468;2024-03-08T09:50:58;6.40;99.90
29341;DHT22;16337;59.536;13.468;2024-03-08T09:53:24;6.40;99.90
29341;DHT22;16337;59.536;13.468;2024-03-08T09:55:49;6.40;99.90
29341;DHT22;16337;59.536;13.468;2024-03-08T09:58:16;6.50;99.90
29341;DHT22;16337;59.536;13.468;2024-03-08T10:00:52;6.70;99.90
29341;DHT22;16337;59.536;13.468;2024-03-08T10:03:19;6.90;99.90
29341;DHT22;16337;59.536;13.468;2024-03-08T10:05:45;7.00;99.90
29341;DHT22;16337;59.536;13.468;2024-03-08T10:08:12;7.10;99.90
29341;DHT22;16337;59.536;13.468;2024-03-08T10:10:39;7.20;99.90
29341;DHT22;16337;59.536;13.468;2024-03-08T10:13:09;7.30;99.90
29341;DHT22;16337;59.536;13.468;2024-03-08T10:15:36;7.30;99.90
29341;DHT22;16337;59.536;13.468;2024-03-08T10:18:02;7.30;99.90
29341;DHT22;16337;59.536;13.468;2024-03-08T10:20:30;7.40;99.90
29341;DHT22;16337;59.536;13.468;2024-03-08T10:23:02;7.50;99.90
29341;DHT22;16337;59.536;13.468;2024-03-08T10:25:30;7.50;99.90
29341;DHT22;16337;59.536;13.468;2024-03-08T10:27:56;7.60;99.90
29341;DHT22;16337;59.536;13.468;2024-03-08T10:30:22;7.70;99.90
29341;DHT22;16337;59.536;13.468;2024-03-08T10:32:48;7.90;99.90
29341;DHT22;16337;59.536;13.468;2024-03-08T10:35:14;7.90;99.90
29341;DHT22;16337;59.536;13.468;2024-03-08T10:37:48;8.00;99.90
29341;DHT22;16337;59.536;13.468;2024-03-08T10:40:18;8.40;99.90
29341;DHT22;16337;59.536;13.468;2024-03-08T10:45:38;8.70;99.90
29341;DHT22;16337;59.536;13.468;2024-03-08T10:50:38;9.20;99.90
29341;DHT22;16337;59.536;13.468;2024-03-08T10:53:06;9.60;99.90
29341;DHT22;16337;59.536;13.468;2024-03-08T10:55:33;9.40;99.90
29341;DHT22;16337;59.536;13.468;2024-03-08T10:58:01;9.50;99.90
29341;DHT22;16337;59.536;13.468;2024-03-08T11:00:27;9.40;99.90
29341;DHT22;16337;59.536;13.468;2024-03-08T11:02:56;9.20;99.90
29341;DHT22;16337;59.536;13.468;2024-03-08T11:05:51;9.40;99.90
29341;DHT22;16337;59.536;13.468;2024-03-08T11:08:20;9.90;99.90
29341;DHT22;16337;59.536;13.468;2024-03-08T11:10:55;10.20;99.90
29341;DHT22;16337;59.536;13.468;2024-03-08T11:13:41;10.20;99.90
29341;DHT22;16337;59.536;13.468;2024-03-08T11:16:35;10.50;99.90
29341;DHT22;16337;59.536;13.468;2024-03-08T11:21:36;10.90;99.90
29341;DHT22;16337;59.536;13.468;2024-03-08T11:24:13;11.10;99.90
29341;DHT22;16337;59.536;13.468;2024-03-08T11:26:40;11.10;99.90
29341;DHT22;16337;59.536;13.468;2024-03-08T11:32:03;10.90;99.90
29341;DHT22;16337;59.536;13.468;2024-03-08T11:34:29;10.80;99.90
29341;DHT22;16337;59.536;13.468;2024-03-08T11:36:56;10.30;99.90
29341;DHT22;16337;59.536;13.468;2024-03-08T11:39:22;10.10;99.90
29341;DHT22;16337;59.536;13.468;2024-03-08T11:41:49;10.00;99.90
29341;DHT22;16337;59.536;13.468;2024-03-08T11:44:15;9.90;99.90
29341;DHT22;16337;59.536;13.468;2024-03-08T11:46:42;10.00;99.90
29341;DHT22;16337;59.536;13.468;2024-03-08T11:49:13;10.20;99.90
29341;DHT22;16337;59.536;13.468;2024-03-08T11:51:39;10.30;99.90
29341;DHT22;16337;59.536;13.468;2024-03-08T11:54:05;10.40;99.90
29341;DHT22;16337;59.536;13.468;2024-03-08T11:56:31;10.30;99.90
29341;DHT22;16337;59.536;13.468;2024-03-08T11:58:57;10.70;99.90
29341;DHT22;16337;59.536;13.468;2024-03-08T12:01:24;10.80;99.90
29341;DHT22;16337;59.536;13.468;2024-03-08T12:03:53;10.50;99.90
29341;DHT22;16337;59.536;13.468;2024-03-08T12:06:20;10.70;99.90
29341;DHT22;16337;59.536;13.468;2024-03-08T12:08:46;11.10;99.90
29341;DHT22;16337;59.536;13.468;2024-03-08T12:11:14;11.20;99.90
29341;DHT22;16337;59.536;13.468;2024-03-08T12:13:41;10.80;99.90
29341;DHT22;16337;59.536;13.468;2024-03-08T12:16:07;10.80;99.90
29341;DHT22;16337;59.536;13.468;2024-03-08T12:18:36;10.60;99.90
29341;DHT22;16337;59.536;13.468;2024-03-08T12:21:06;10.70;99.90
29341;DHT22;16337;59.536;13.468;2024-03-08T12:23:37;11.10;99.90
29341;DHT22;16337;59.536;13.468;2024-03-08T12:26:17;11.40;99.90
29341;DHT22;16337;59.536;13.468;2024-03-08T12:28:44;11.00;99.90
29341;DHT22;16337;59.536;13.468;2024-03-08T12:31:12;10.60;99.90
29341;DHT22;16337;59.536;13.468;2024-03-08T12:33:50;10.10;99.90
29341;DHT22;16337;59.536;13.468;2024-03-08T12:36:17;10.00;99.90
29341;DHT22;16337;59.536;13.468;2024-03-08T12:38:49;10.40;99.90
29341;DHT22;16337;59.536;13.468;2024-03-08T12:41:20;10.20;99.90
29341;DHT22;16337;59.536;13.468;2024-03-08T12:43:46;10.30;99.90
29341;DHT22;16337;59.536;13.468;2024-03-08T12:46:19;10.40;99.90
29341;DHT22;16337;59.536;13.468;2024-03-08T12:48:51;10.40;99.90
29341;DHT22;16337;59.536;13.468;2024-03-08T12:51:19;10.60;99.90
29341;DHT22;16337;59.536;13.468;2024-03-08T12:53:46;10.50;99.90
29341;DHT22;16337;59.536;13.468;2024-03-08T12:56:13;10.30;99.90
29341;DHT22;16337;59.536;13.468;2024-03-08T12:58:40;10.40;99.90
29341;DHT22;16337;59.536;13.468;2024-03-08T13:01:06;10.70;99.90
29341;DHT22;16337;59.536;13.468;2024-03-08T13:03:35;10.80;99.90
29341;DHT22;16337;59.536;13.468;2024-03-08T13:06:05;10.60;99.90
29341;DHT22;16337;59.536;13.468;2024-03-08T13:08:37;10.00;99.90
29341;DHT22;16337;59.536;13.468;2024-03-08T13:11:09;9.70;99.90
29341;DHT22;16337;59.536;13.468;2024-03-08T13:13:37;9.50;99.90
29341;DHT22;16337;59.536;13.468;2024-03-08T13:16:06;9.40;99.90
29341;DHT22;16337;59.536;13.468;2024-03-08T13:18:35;9.20;99.90
29341;DHT22;16337;59.536;13.468;2024-03-08T13:21:01;9.10;99.90
29341;DHT22;16337;59.536;13.468;2024-03-08T13:23:34;9.30;99.90
29341;DHT22;16337;59.536;13.468;2024-03-08T13:26:08;9.60;99.90
29341;DHT22;16337;59.536;13.468;2024-03-08T13:28:34;9.60;99.90
29341;DHT22;16337;59.536;13.468;2024-03-08T13:31:04;9.50;99.90
29341;DHT22;16337;59.536;13.468;2024-03-08T13:33:33;9.80;99.90
29341;DHT22;16337;59.536;13.468;2024-03-08T13:36:08;10.40;99.90
29341;DHT22;16337;59.536;13.468;2024-03-08T13:38:45;10.60;99.90
29341;DHT22;16337;59.536;13.468;2024-03-08T13:41:12;10.40;99.90
29341;DHT22;16337;59.536;13.468;2024-03-08T13:43:40;10.00;99.90
29341;DHT22;16337;59.536;13.468;2024-03-08T13:46:06;10.20;99.90
29341;DHT22;16337;59.536;13.468;2024-03-08T13:48:33;11.00;99.90
29341;DHT22;16337;59.536;13.468;2024-03-08T13:50:58;11.50;99.90
29341;DHT22;16337;59.536;13.468;2024-03-08T13:53:26;11.10;99.90
29341;DHT22;16337;59.536;13.468;2024-03-08T13:55:51;9.80;99.90
29341;DHT22;16337;59.536;13.468;2024-03-08T13:58:17;8.80;99.90
29341;DHT22;16337;59.536;13.468;2024-03-08T14:00:43;8.00;99.90
29341;DHT22;16337;59.536;13.468;2024-03-08T14:03:11;7.60;99.90
29341;DHT22;16337;59.536;13.468;2024-03-08T14:05:41;7.40;99.90
29341;DHT22;16337;59.536;13.468;2024-03-08T14:08:08;7.20;99.90
29341;DHT22;16337;59.536;13.468;2024-03-08T14:10:35;7.00;99.90
29341;DHT22;16337;59.536;13.468;2024-03-08T14:13:03;6.70;99.90
29341;DHT22;16337;59.536;13.468;2024-03-08T14:15:31;6.40;99.90
29341;DHT22;16337;59.536;13.468;2024-03-08T14:17:56;6.80;99.90
29341;DHT22;16337;59.536;13.468;2024-03-08T14:20:23;7.00;99.90
29341;DHT22;16337;59.536;13.468;2024-03-08T14:22:59;6.80;99.90
29341;DHT22;16337;59.536;13.468;2024-03-08T14:25:25;6.90;99.90
29341;DHT22;16337;59.536;13.468;2024-03-08T14:27:52;6.50;99.90
29341;DHT22;16337;59.536;13.468;2024-03-08T14:30:29;6.20;99.90
29341;DHT22;16337;59.536;13.468;2024-03-08T14:33:07;5.80;99.90
29341;DHT22;16337;59.536;13.468;2024-03-08T14:35:37;5.50;99.90
29341;DHT22;16337;59.536;13.468;2024-03-08T14:38:03;5.40;99.90
29341;DHT22;16337;59.536;13.468;2024-03-08T14:40:29;5.10;99.90
29341;DHT22;16337;59.536;13.468;2024-03-08T14:42:56;5.00;99.90
29341;DHT22;16337;59.536;13.468;2024-03-08T14:45:22;4.90;99.90
29341;DHT22;16337;59.536;13.468;2024-03-08T14:47:50;4.90;99.90
29341;DHT22;16337;59.536;13.468;2024-03-08T14:50:17;4.80;99.90
29341;DHT22;16337;59.536;13.468;2024-03-08T14:52:43;4.70;99.90
29341;DHT22;16337;59.536;13.468;2024-03-08T14:55:09;4.60;99.90
29341;DHT22;16337;59.536;13.468;2024-03-08T14:57:40;4.50;99.90
29341;DHT22;16337;59.536;13.468;2024-03-08T15:00:06;4.30;99.90
29341;DHT22;16337;59.536;13.468;2024-03-08T15:02:33;4.20;99.90
29341;DHT22;16337;59.536;13.468;2024-03-08T15:05:03;4.20;99.90
29341;DHT22;16337;59.536;13.468;2024-03-08T15:07:34;4.20;99.90
29341;DHT22;16337;59.536;13.468;2024-03-08T15:10:00;4.10;99.90
29341;DHT22;16337;59.536;13.468;2024-03-08T15:12:26;4.00;99.90
29341;DHT22;16337;59.536;13.468;2024-03-08T15:14:53;3.90;99.90
29341;DHT22;16337;59.536;13.468;2024-03-08T15:17:20;3.90;99.90
29341;DHT22;16337;59.536;13.468;2024-03-08T15:19:47;3.80;99.90
29341;DHT22;16337;59.536;13.468;2024-03-08T15:22:13;3.80;99.90
29341;DHT22;16337;59.536;13.468;2024-03-08T15:24:40;3.80;99.90
29341;DHT22;16337;59.536;13.468;2024-03-08T15:27:08;3.70;99.90
29341;DHT22;16337;59.536;13.468;2024-03-08T15:29:34;3.60;99.90
29341;DHT22;16337;59.536;13.468;2024-03-08T15:32:01;3.60;99.90
29341;DHT22;16337;59.536;13.468;2024-03-08T15:34:26;3.50;99.90
29341;DHT22;16337;59.536;13.468;2024-03-08T15:36:52;3.50;99.90
29341;DHT22;16337;59.536;13.468;2024-03-08T15:39:19;3.40;99.90